Time;durP1;ratioP1;P1;durP2;ratioP2;P2;SDS_P1;SDS_P2;PMS_P1;PMS_P2;Temp;Humidity;BMP_temperature;BMP_pressure;BME280_temperature;BME280_humidity;BME280_pressure;Samples;Min_cycle;Max_cycle;Signal;HPM_P1;HPM_P2
2022/08/18 00:02:14;;;;;;;26.50;21.73;;;;;;;20.40;100.00;100217.12;1685794;84;21090;-95
2022/08/18 00:04:41;;;;;;;24.92;22.32;;;;;;;20.38;100.00;100222.28;1684652;84;21086;-94
2022/08/18 00:07:14;;;;;;;26.10;23.52;;;;;;;20.39;100.00;100215.48;1676310;84;21536;-95
2022/08/18 00:09:43;;;;;;;24.63;22.17;;;;;;;20.39;100.00;100212.84;1685572;84;21817;-94
2022/08/18 00:12:35;;;;;;;23.65;21.25;;;;;;;20.40;100.00;100211.83;1686531;84;21054;-94
2022/08/18 00:15:07;;;;;;;24.18;21.65;;;;;;;20.38;100.00;100199.33;1688892;84;21106;-95
2022/08/18 00:17:38;;;;;;;25.55;22.67;;;;;;;20.35;100.00;100204.98;1684071;84;21485;-94
2022/08/18 00:20:18;;;;;;;26.15;23.55;;;;;;;20.28;100.00;100201.47;1679855;84;21504;-94
2022/08/18 00:22:46;;;;;;;33.25;24.75;;;;;;;20.25;100.00;100205.80;1684979;84;21320;-95
2022/08/18 00:25:21;;;;;;;25.43;22.98;;;;;;;20.19;100.00;100203.40;1678678;84;21106;-94
2022/08/18 00:27:49;;;;;;;26.73;23.83;;;;;;;20.15;100.00;100200.83;1683468;84;20999;-94
2022/08/18 00:30:20;;;;;;;30.17;24.80;;;;;;;20.13;100.00;100201.52;1677448;84;21054;-94
2022/08/18 00:32:53;;;;;;;25.43;23.02;;;;;;;20.09;100.00;100207.69;1677960;84;21022;-94
2022/08/18 00:35:33;;;;;;;27.05;24.25;;;;;;;20.07;100.00;100211.01;1683141;84;21149;-94
2022/08/18 00:38:07;;;;;;;25.82;23.18;;;;;;;20.06;100.00;100216.48;1686027;84;21086;-93
2022/08/18 00:40:45;;;;;;;27.93;24.40;;;;;;;20.05;100.00;100226.26;1683907;84;21596;-94
2022/08/18 00:43:33;;;;;;;27.45;24.27;;;;;;;20.03;100.00;100230.09;1672132;84;20998;-94
2022/08/18 00:46:09;;;;;;;30.60;25.35;;;;;;;20.02;100.00;100230.58;1680340;84;21035;-94
2022/08/18 00:48:37;;;;;;;28.23;25.12;;;;;;;19.98;100.00;100224.05;1669342;84;21138;-94
2022/08/18 00:51:09;;;;;;;27.87;25.17;;;;;;;19.93;100.00;100223.28;1681997;84;21114;-95
2022/08/18 00:53:48;;;;;;;27.50;23.80;;;;;;;19.96;100.00;100225.53;1673895;84;21086;-94
2022/08/18 00:56:24;;;;;;;28.87;24.72;;;;;;;19.98;100.00;100218.77;1682730;84;21058;-94
2022/08/18 00:59:11;;;;;;;27.00;24.12;;;;;;;20.01;100.00;100223.66;1674869;84;21015;-93
2022/08/18 01:01:48;;;;;;;25.75;23.07;;;;;;;20.00;100.00;100222.85;1680763;84;21176;-93
2022/08/18 01:04:25;;;;;;;25.17;22.55;;;;;;;19.98;100.00;100228.02;1673823;84;21033;-94
2022/08/18 01:06:59;;;;;;;25.43;22.48;;;;;;;19.97;100.00;100227.17;1684826;84;21573;-93
2022/08/18 01:09:31;;;;;;;26.40;23.77;;;;;;;19.97;100.00;100223.73;1687621;84;21597;-93
2022/08/18 01:12:04;;;;;;;29.15;24.80;;;;;;;19.98;100.00;100221.41;1685165;84;21007;-93
2022/08/18 01:14:32;;;;;;;27.87;24.95;;;;;;;19.97;100.00;100219.77;1682683;84;21155;-95
2022/08/18 01:22:38;;;;;;;30.85;26.97;;;;;;;19.89;100.00;100212.76;1685144;84;21062;-93
2022/08/18 01:27:55;;;;;;;29.80;26.57;;;;;;;19.80;100.00;100212.03;1684394;84;21107;-93
2022/08/18 01:30:26;;;;;;;29.12;26.00;;;;;;;19.73;100.00;100213.78;1686042;84;21018;-93
2022/08/18 01:32:55;;;;;;;29.85;26.42;;;;;;;19.71;100.00;100212.63;1696146;84;21058;-93
2022/08/18 01:35:28;;;;;;;30.15;25.15;;;;;;;19.69;100.00;100207.22;1692808;84;21635;-94
2022/08/18 01:37:56;;;;;;;30.45;27.27;;;;;;;19.69;100.00;100207.22;1696283;84;20994;-94
2022/08/18 01:40:25;;;;;;;30.77;26.73;;;;;;;19.70;100.00;100210.18;1690970;84;21895;-94
2022/08/18 01:42:52;;;;;;;30.57;26.75;;;;;;;19.71;100.00;100204.70;1691776;83;21076;-95
2022/08/18 01:45:21;;;;;;;30.17;27.07;;;;;;;19.72;100.00;100200.25;1683576;83;21128;-95
2022/08/18 01:47:49;;;;;;;29.05;26.05;;;;;;;19.72;100.00;100200.25;1684041;83;21013;-93
2022/08/18 01:50:18;;;;;;;30.72;27.65;;;;;;;19.73;100.00;100203.70;1667983;85;21054;-93
2022/08/18 01:52:45;;;;;;;32.00;28.25;;;;;;;19.72;100.00;100208.18;1682340;84;21081;-93
2022/08/18 01:55:13;;;;;;;30.52;27.30;;;;;;;19.70;100.00;100206.22;1686868;83;21049;-94
2022/08/18 01:57:46;;;;;;;33.15;29.10;;;;;;;19.65;100.00;100212.56;1691559;83;20977;-94
2022/08/18 02:00:18;;;;;;;30.95;26.97;;;;;;;19.59;100.00;100211.99;1679730;84;22341;-94
2022/08/18 02:02:51;;;;;;;31.37;27.32;;;;;;;19.58;100.00;100215.12;1678064;84;21103;-94
2022/08/18 02:05:33;;;;;;;37.13;28.60;;;;;;;19.59;100.00;100217.28;1686769;83;21182;-93
2022/08/18 02:08:05;;;;;;;31.27;26.30;;;;;;;19.64;100.00;100217.53;1690912;83;21032;-93
2022/08/18 02:10:33;;;;;;;;;;;;;;;19.66;100.00;100217.66;1684989;84;21548;-94
2022/08/18 02:13:02;;;;;;;31.95;26.05;;;;;;;19.70;100.00;100211.50;1671143;85;20452;-94
2022/08/18 02:15:36;;;;;;;31.00;26.90;;;;;;;19.74;100.00;100215.91;1678054;84;21023;-94
2022/08/18 02:18:05;;;;;;;31.02;27.65;;;;;;;19.76;100.00;100209.43;1667618;84;21140;-94
2022/08/18 02:20:32;;;;;;;32.40;27.32;;;;;;;19.76;100.00;100214.71;1696864;83;20995;-94
2022/08/18 02:23:05;;;;;;;31.57;28.17;;;;;;;19.71;100.00;100212.63;1695589;83;21055;-93
2022/08/18 02:25:33;;;;;;;30.35;26.60;;;;;;;19.68;100.00;100212.18;1681457;84;21606;-93
2022/08/18 02:28:01;;;;;;;29.60;26.42;;;;;;;19.64;100.00;100209.09;1683896;83;21104;-93
2022/08/18 02:30:28;;;;;;;32.65;27.25;;;;;;;19.59;100.00;100208.84;1684540;83;21144;-95
2022/08/18 02:32:57;;;;;;;33.20;28.27;;;;;;;19.52;100.00;100210.06;1686383;83;21105;-94
2022/08/18 02:35:25;;;;;;;28.87;25.88;;;;;;;19.43;100.00;100207.72;1682159;83;21547;-92
2022/08/18 02:37:59;;;;;;;29.07;26.10;;;;;;;19.33;100.00;100216.73;1674506;83;21085;-93
2022/08/18 02:40:27;;;;;;;29.60;26.48;;;;;;;19.31;100.00;100224.00;1678309;83;21572;-93
2022/08/18 02:42:55;;;;;;;27.58;24.90;;;;;;;19.28;100.00;100224.39;1675505;83;21215;-93
2022/08/18 02:45:28;;;;;;;28.90;24.35;;;;;;;19.28;100.00;100226.19;1679683;83;21022;-92
2022/08/18 02:47:57;;;;;;;27.95;25.02;;;;;;;19.28;100.00;100226.19;1687169;83;21046;-92
2022/08/18 02:50:25;;;;;;;28.80;24.77;;;;;;;19.29;100.00;100226.52;1686362;83;21697;-93
2022/08/18 02:52:53;;;;;;;27.93;23.75;;;;;;;19.30;100.00;100224.20;1673594;83;21068;-94
2022/08/18 02:55:25;;;;;;;27.20;24.20;;;;;;;19.33;100.00;100227.80;1672006;83;21173;-92
2022/08/18 02:57:53;;;;;;;29.07;24.23;;;;;;;19.36;100.00;100227.42;1676605;83;21505;-93
2022/08/18 03:00:22;;;;;;;27.00;24.18;;;;;;;19.38;100.00;100228.90;1694788;83;21045;-92
2022/08/18 03:02:53;;;;;;;26.33;23.70;;;;;;;19.42;100.00;100224.08;1685874;83;21045;-92
2022/08/18 03:05:20;;;;;;;27.57;24.87;;;;;;;19.47;100.00;100222.20;1679561;83;21074;-92
2022/08/18 03:07:53;;;;;;;27.90;24.27;;;;;;;19.51;100.00;100228.23;1679506;83;21184;-92
2022/08/18 03:10:22;;;;;;;26.42;23.52;;;;;;;19.54;100.00;100223.11;1686083;83;21073;-90
2022/08/18 03:12:50;;;;;;;26.12;23.32;;;;;;;19.54;100.00;100229.19;1673502;83;21066;-93
2022/08/18 03:15:17;;;;;;;26.35;23.62;;;;;;;19.57;100.00;100228.52;1685741;83;21066;-91
2022/08/18 03:17:50;;;;;;;25.05;22.50;;;;;;;19.59;100.00;100240.52;1691395;83;21686;-90
2022/08/18 03:20:21;;;;;;;23.77;21.30;;;;;;;19.60;100.00;100239.53;1677795;83;21223;-90
2022/08/18 03:22:52;;;;;;;24.27;21.75;;;;;;;19.64;100.00;100234.70;1686184;83;28150;-90
2022/08/18 03:25:22;;;;;;;29.87;21.85;;;;;;;19.66;100.00;100230.05;1670642;84;21089;-90
2022/08/18 03:27:49;;;;;;;24.52;22.02;;;;;;;19.71;100.00;100235.59;1676911;83;21053;-90
2022/08/18 03:30:18;;;;;;;27.75;23.25;;;;;;;19.74;100.00;100233.08;1674006;84;21092;-90
2022/08/18 03:32:46;;;;;;;25.88;23.15;;;;;;;19.77;100.00;100233.52;1670254;85;21147;-91
2022/08/18 03:35:16;;;;;;;27.40;24.63;;;;;;;19.79;100.00;100229.40;1692687;83;21064;-93
2022/08/18 03:37:44;;;;;;;27.30;24.47;;;;;;;19.77;100.00;100226.92;1694423;83;21554;-90
2022/08/18 03:40:17;;;;;;;28.25;25.40;;;;;;;19.76;100.00;100222.64;1673493;84;21089;-91
2022/08/18 03:42:46;;;;;;;27.75;23.95;;;;;;;19.79;100.00;100224.92;1681483;83;21005;-90
2022/08/18 03:45:15;;;;;;;26.07;23.40;;;;;;;19.83;100.00;100231.97;1681947;84;21205;-90
2022/08/18 03:47:46;;;;;;;24.30;21.82;;;;;;;19.89;100.00;100227.29;1680964;84;20996;-90
2022/08/18 03:50:13;;;;;;;27.32;23.45;;;;;;;19.95;100.00;100229.17;1690892;83;21072;-91
2022/08/18 03:52:42;;;;;;;25.72;21.55;;;;;;;20.04;100.00;100233.86;1684901;83;21554;-91
2022/08/18 03:55:09;;;;;;;25.70;22.75;;;;;;;20.10;100.00;100225.70;1695250;84;21117;-90
2022/08/18 03:57:44;;;;;;;24.30;21.60;;;;;;;20.17;100.00;100227.38;1687030;83;21184;-93
2022/08/18 04:00:13;;;;;;;24.32;21.73;;;;;;;20.27;100.00;100233.67;1665746;85;21511;-90
2022/08/18 04:02:40;;;;;;;23.55;21.02;;;;;;;20.39;100.00;100231.34;1666015;84;21102;-90
2022/08/18 04:05:13;;;;;;;23.05;20.70;;;;;;;20.48;100.00;100231.53;1681158;83;21065;-90
2022/08/18 04:07:45;;;;;;;23.73;21.35;;;;;;;20.59;100.00;100236.00;1697788;83;21029;-90
2022/08/18 04:10:13;;;;;;;23.10;20.95;;;;;;;20.72;100.00;100231.33;1680605;83;21142;-91
2022/08/18 04:12:41;;;;;;;28.85;22.30;;;;;;;20.84;100.00;100231.66;1674955;84;21057;-91
2022/08/18 04:15:10;;;;;;;24.10;21.68;;;;;;;20.95;100.00;100229.81;1695105;84;33367;-91
2022/08/18 04:17:40;;;;;;;24.27;21.57;;;;;;;21.07;100.00;100228.77;1691149;84;21711;-91
2022/08/18 04:20:11;;;;;;;24.60;21.90;;;;;;;21.15;100.00;100233.91;1673867;84;21125;-91
2022/08/18 04:22:39;;;;;;;25.85;22.77;;;;;;;21.24;100.00;100235.88;1698200;84;21135;-90
2022/08/18 04:25:10;;;;;;;24.90;22.27;;;;;;;21.35;100.00;100234.52;1679872;84;21069;-91
2022/08/18 04:27:41;;;;;;;24.18;21.62;;;;;;;21.45;100.00;100234.98;1680964;83;21569;-90
2022/08/18 04:30:10;;;;;;;24.55;22.05;;;;;;;21.54;100.00;100236.94;1682116;83;21029;-91
2022/08/18 04:32:38;;;;;;;25.87;23.23;;;;;;;21.65;100.00;100232.94;1673801;83;21104;-92
2022/08/18 04:35:06;;;;;;;26.00;23.30;;;;;;;21.78;100.00;100234.83;1676125;83;22007;-92
2022/08/18 04:37:37;;;;;;;28.67;25.35;;;;;;;21.86;100.00;100239.95;1675116;83;21037;-91
2022/08/18 04:40:07;;;;;;;27.32;24.37;;;;;;;21.93;100.00;100244.76;1693753;84;21019;-92
2022/08/18 04:42:35;;;;;;;27.20;24.50;;;;;;;21.96;100.00;100245.70;1663054;84;21034;-92
2022/08/18 04:45:07;;;;;;;27.00;23.98;;;;;;;21.99;100.00;100243.95;1666728;84;21015;-91
2022/08/18 04:47:40;;;;;;;27.15;24.32;;;;;;;22.02;100.00;100246.22;1672641;85;21772;-92
2022/08/18 04:50:08;;;;;;;26.95;24.35;;;;;;;22.04;100.00;100245.52;1687668;84;21054;-92
2022/08/18 04:55:28;;;;;;;27.17;24.12;;;;;;;22.12;100.00;100250.32;1695639;84;21053;-92
2022/08/18 04:57:58;;;;;;;26.68;23.87;;;;;;;22.14;100.00;100241.67;1683835;84;21042;-92
2022/08/18 05:00:26;;;;;;;27.13;24.18;;;;;;;22.18;100.00;100240.23;1685979;84;21797;-93
2022/08/18 05:02:56;;;;;;;26.57;23.77;;;;;;;22.22;100.00;100244.13;1690088;84;21030;-92
2022/08/18 05:05:29;;;;;;;27.62;24.37;;;;;;;22.26;100.00;100253.30;1686567;83;21069;-91
2022/08/18 05:07:57;;;;;;;27.85;23.30;;;;;;;22.37;100.00;100257.19;1673921;83;21045;-92
2022/08/18 05:10:25;;;;;;;24.80;22.17;;;;;;;22.48;100.00;100252.66;1676872;83;21132;-94
2022/08/18 05:12:53;;;;;;;26.27;23.47;;;;;;;22.61;100.00;100250.52;1687421;84;21817;-92
2022/08/18 05:15:21;;;;;;;26.95;23.05;;;;;;;22.73;100.00;100257.36;1676411;84;21050;-92
2022/08/18 05:17:53;;;;;;;25.48;22.80;;;;;;;22.84;100.00;100257.25;1673352;84;21014;-92
2022/08/18 05:20:25;;;;;;;28.23;24.00;;;;;;;22.96;100.00;100255.59;1673109;84;21079;-92
2022/08/18 05:22:54;;;;;;;25.10;22.42;;;;;;;23.07;100.00;100256.83;1687898;84;21053;-92
2022/08/18 05:25:25;;;;;;;29.23;23.32;;;;;;;23.17;100.00;100256.39;1662425;84;21186;-92
2022/08/18 05:27:54;;;;;;;28.95;21.90;;;;;;;23.24;100.00;100258.55;1683872;84;21096;-93
2022/08/18 05:30:21;;;;;;;25.05;22.40;;;;;;;23.34;100.00;100255.45;1686730;84;21014;-94
2022/08/18 05:32:48;;;;;;;26.68;23.85;;;;;;;23.40;100.00;100247.97;1676639;83;21045;-93
2022/08/18 05:35:27;;;;;;;27.32;23.65;;;;;;;23.47;100.00;100253.27;1691630;83;21562;-93
2022/08/18 05:38:14;;;;;;;24.92;21.65;;;;;;;23.54;100.00;100248.75;1687199;84;21162;-88
2022/08/18 05:40:44;;;;;;;25.17;22.10;;;;;;;23.66;100.00;100248.91;1665938;83;21073;-92
2022/08/18 05:43:16;;;;;;;29.02;23.52;;;;;;;23.78;100.00;100243.74;1689193;84;21071;-90
2022/08/18 05:45:48;;;;;;;29.92;22.98;;;;;;;23.91;100.00;100247.69;1680298;84;21492;-95
2022/08/18 05:48:16;;;;;;;28.83;24.47;;;;;;;24.04;100.00;100238.02;1676054;83;21041;-89
2022/08/18 05:50:54;;;;;;;26.30;23.50;;;;;;;24.17;100.00;100240.59;1682218;83;21775;-92
2022/08/18 05:56:45;;;;;;;32.10;26.70;;;;;;;24.29;100.00;100237.25;1681414;84;20999;-91
2022/08/18 05:56:56;;;;;;;27.17;24.18;;;;;;;24.42;100.00;100235.81;1679114;85;21112;-92
2022/08/18 05:59:34;;;;;;;28.70;24.55;;;;;;;24.52;100.00;100231.33;1672853;85;21044;-89
2022/08/18 06:10:30;;;;;;;28.00;23.10;;;;;;;24.80;100.00;100234.91;1674270;83;21105;-93
2022/08/18 06:13:41;;;;;;;24.92;22.32;;;;;;;25.02;100.00;100229.98;1688402;83;21092;-96
2022/08/18 06:28:04;;;;;;;23.60;21.00;;;;;;;25.66;100.00;100229.69;1678501;85;21092;-93
2022/08/18 06:31:11;;;;;;;24.57;21.77;;;;;;;25.82;100.00;100229.60;1674951;83;21030;-94
2022/08/18 06:43:06;;;;;;;22.85;19.80;;;;;;;26.23;100.00;100229.05;1652427;86;21069;-94
2022/08/18 06:45:57;;;;;;;21.27;18.65;;;;;;;26.41;100.00;100228.95;1645219;85;21137;-95
2022/08/18 06:48:47;;;;;;;19.42;17.52;;;;;;;26.55;100.00;100227.42;1658521;85;21036;-92
2022/08/18 06:51:19;;;;;;;20.23;17.98;;;;;;;26.65;100.00;100230.30;1675946;84;21104;-92
2022/08/18 06:53:57;;;;;;;22.35;18.60;;;;;;;26.76;100.00;100227.41;1682798;84;21057;-90
2022/08/18 06:56:40;;;;;;;223.90;69.27;;;;;;;26.83;100.00;100224.59;1672844;84;21160;-90
2022/08/18 06:59:18;;;;;;;403.52;112.52;;;;;;;26.92;100.00;100216.52;1679281;84;21041;-88
2022/08/18 07:01:51;;;;;;;77.70;35.03;;;;;;;27.03;100.00;100224.23;1684176;84;21037;-89
2022/08/18 07:04:45;;;;;;;119.72;42.53;;;;;;;27.15;100.00;100224.21;1668012;84;21049;-91
2022/08/18 07:07:29;;;;;;;41.68;23.12;;;;;;;27.25;100.00;100228.44;1673397;84;21068;-90
2022/08/18 07:10:00;;;;;;;30.90;22.00;;;;;;;27.40;100.00;100228.75;1674616;84;21279;-91
2022/08/18 07:12:29;;;;;;;27.42;23.98;;;;;;;27.52;100.00;100221.27;1672764;84;21105;-90
2022/08/18 07:15:00;;;;;;;70.65;34.30;;;;;;;27.62;100.00;100221.44;1677818;84;22347;-90
2022/08/18 07:17:33;;;;;;;;;;;;;;;27.66;100.00;100217.25;1673813;84;21065;-92
2022/08/18 07:20:23;;;;;;;32.90;25.52;;;;;;;27.71;100.00;100214.66;1676697;84;20215;-90
2022/08/18 07:23:01;;;;;;;36.95;26.73;;;;;;;27.76;100.00;100211.27;1687020;84;21814;-90
2022/08/18 07:25:38;;;;;;;29.18;26.17;;;;;;;27.80;100.00;100218.28;1653524;86;21649;-89
2022/08/18 07:28:23;;;;;;;29.67;26.42;;;;;;;27.86;100.00;100217.32;1681303;84;21004;-89
2022/08/18 07:30:50;;;;;;;608.95;192.22;;;;;;;27.96;100.00;100216.17;1659600;84;21070;-89
2022/08/18 07:33:24;;;;;;;118.20;52.53;;;;;;;28.06;100.00;100221.41;1674048;84;21048;-89
2022/08/18 07:36:04;;;;;;;35.17;24.77;;;;;;;28.13;100.00;100218.09;1682434;83;21189;-89
2022/08/18 07:38:41;;;;;;;36.45;26.50;;;;;;;28.16;100.00;100215.73;1669756;83;21053;-89
2022/08/18 07:41:21;;;;;;;34.85;23.87;;;;;;;28.22;100.00;100216.64;1697059;84;21050;-89
2022/08/18 07:44:20;;;;;;;28.98;22.58;;;;;;;28.24;100.00;100219.89;1684439;83;21092;-90
2022/08/18 07:47:09;;;;;;;46.40;25.52;;;;;;;28.30;100.00;100213.56;1683228;83;21574;-89
2022/08/18 07:49:41;;;;;;;41.28;22.10;;;;;;;28.39;100.00;100217.17;1690374;83;21122;-89
2022/08/18 07:52:25;;;;;;;22.98;18.20;;;;;;;28.46;100.00;100211.13;1688503;83;21067;-90
2022/08/18 07:55:07;;;;;;;18.90;16.93;;;;;;;28.48;100.00;100214.38;1683253;83;21319;-90
2022/08/18 07:57:50;;;;;;;18.50;16.05;;;;;;;28.53;100.00;100206.91;1674139;83;21323;-90
2022/08/18 08:00:27;;;;;;;19.37;16.15;;;;;;;28.65;100.00;100201.75;1659405;83;21373;-89
2022/08/18 08:03:18;;;;;;;17.77;15.08;;;;;;;28.75;100.00;100199.80;1688043;83;21148;-90
2022/08/18 08:06:02;;;;;;;16.87;15.30;;;;;;;28.84;100.00;100192.13;1693938;84;21072;-89
2022/08/18 08:08:59;;;;;;;16.17;14.03;;;;;;;28.95;100.00;100195.75;1697670;84;21097;-90
2022/08/18 08:11:50;;;;;;;14.00;12.60;;;;;;;29.04;100.00;100186.77;1688196;83;21089;-89
2022/08/18 08:14:53;;;;;;;15.97;14.10;;;;;;;29.12;100.00;100192.49;1686667;83;21594;-89
2022/08/18 08:17:39;;;;;;;14.70;12.82;;;;;;;29.21;100.00;100184.81;1691239;83;21367;-90
2022/08/18 08:20:18;;;;;;;15.28;13.88;;;;;;;29.27;100.00;100185.17;1675626;84;21427;-90
2022/08/18 08:23:22;;;;;;;15.00;13.38;;;;;;;29.29;100.00;100180.89;1682740;83;21029;-90
2022/08/18 08:26:25;;;;;;;14.07;12.82;;;;;;;29.27;100.00;100177.13;1669325;84;21096;-89
2022/08/18 08:29:25;;;;;;;13.53;12.15;;;;;;;29.30;100.00;100177.66;1686259;84;21745;-91
2022/08/18 08:32:07;;;;;;;13.90;12.50;;;;;;;29.31;100.00;100180.63;1690644;84;21167;-90
2022/08/18 08:34:52;;;;;;;17.45;12.60;;;;;;;29.33;100.00;100175.33;1665001;84;21055;-90
2022/08/18 08:37:23;;;;;;;13.45;12.15;;;;;;;29.41;100.00;100176.22;1669751;84;21098;-91
2022/08/18 08:39:59;;;;;;;13.98;12.05;;;;;;;29.49;100.00;100170.95;1654437;85;21065;-91
2022/08/18 08:42:41;;;;;;;13.72;12.28;;;;;;;29.57;100.00;100169.16;1663524;85;21030;-90
2022/08/18 08:45:29;;;;;;;14.78;12.33;;;;;;;29.66;100.00;100171.38;1655255;84;21302;-91
2022/08/18 08:48:06;;;;;;;14.90;12.78;;;;;;;29.78;100.00;100166.66;1667554;85;21072;-89
2022/08/18 08:50:44;;;;;;;13.65;12.28;;;;;;;29.86;100.00;100166.73;1643006;87;21065;-90
2022/08/18 08:53:32;;;;;;;13.78;12.45;;;;;;;29.91;100.00;100166.77;1648367;84;21089;-90
2022/08/18 08:56:08;;;;;;;12.98;11.68;;;;;;;29.92;100.00;100164.94;1672156;84;21057;-90
2022/08/18 08:58:50;;;;;;;13.43;12.13;;;;;;;29.96;100.00;100172.74;1650198;84;21273;-90
2022/08/18 09:01:35;;;;;;;14.07;12.68;;;;;;;30.02;100.00;100173.88;1669562;85;20955;-90
2022/08/18 09:04:44;;;;;;;13.78;12.47;;;;;;;30.10;100.00;100171.23;1627787;84;21109;-90
2022/08/18 09:07:35;;;;;;;13.55;12.25;;;;;;;30.17;100.00;100171.03;1644530;86;21099;-91
2022/08/18 09:10:41;;;;;;;13.32;12.05;;;;;;;30.28;100.00;100169.22;1680485;84;21592;-96
2022/08/18 09:13:20;;;;;;;13.03;11.78;;;;;;;30.36;100.00;100164.72;1667347;85;21166;-95
2022/08/18 09:19:51;;;;;;;14.23;12.93;;;;;;;30.47;100.00;100165.06;1626949;87;21118;-92
2022/08/18 09:22:42;;;;;;;14.55;13.08;;;;;;;30.54;100.00;100159.48;1621885;88;21009;-95
2022/08/18 09:25:33;;;;;;;13.83;12.43;;;;;;;30.60;100.00;100160.32;1622935;88;21080;-96
2022/08/18 09:28:22;;;;;;;15.43;13.93;;;;;;;30.61;100.00;100163.28;1621415;87;21211;-93
2022/08/18 09:31:06;;;;;;;14.85;13.30;;;;;;;30.65;100.00;100157.65;1601325;86;21111;-92
2022/08/18 09:33:51;;;;;;;14.63;13.25;;;;;;;30.79;100.00;100157.48;1626756;88;21073;-96
2022/08/18 09:43:15;;;;;;;15.32;13.53;;;;;;;31.28;100.00;100163.59;1680491;83;21251;-90
2022/08/18 09:46:03;;;;;;;15.80;14.28;;;;;;;31.38;100.00;100164.15;1638928;85;21059;-96
2022/08/18 09:48:36;;;;;;;15.20;13.83;;;;;;;31.49;100.00;100153.66;1684245;83;21014;-96
2022/08/18 09:51:25;;;;;;;17.45;15.85;;;;;;;31.64;100.00;100155.58;1672441;85;21086;-96
2022/08/18 09:54:12;;;;;;;18.32;16.45;;;;;;;31.75;100.00;100152.37;1676913;84;21426;-96
2022/08/18 09:56:59;;;;;;;17.87;15.98;;;;;;;31.82;100.00;100146.73;1644073;83;21107;-96
2022/08/18 09:59:37;;;;;;;24.52;16.27;;;;;;;31.89;100.00;100146.72;1669585;85;20996;-95
2022/08/18 10:02:27;;;;;;;18.80;16.82;;;;;;;32.02;100.00;100144.03;1682176;84;21498;-95
2022/08/18 10:05:20;;;;;;;17.15;15.55;;;;;;;32.16;100.00;100147.53;1673821;84;21563;-96
2022/08/18 10:08:05;;;;;;;18.85;16.85;;;;;;;32.16;100.00;100147.53;1660622;85;21107;-96
2022/08/18 10:10:59;;;;;;;19.37;17.45;;;;;;;32.25;100.00;100143.22;1681505;84;21220;-96
2022/08/18 10:13:35;;;;;;;19.55;17.67;;;;;;;32.29;100.00;100148.89;1679302;85;21039;-96
2022/08/18 10:16:32;;;;;;;18.90;17.32;;;;;;;32.33;100.00;100137.83;1677662;85;21520;-95
2022/08/18 10:19:32;;;;;;;19.65;17.70;;;;;;;32.38;100.00;100139.97;1659376;85;21466;-89
2022/08/18 10:22:04;;;;;;;19.67;17.75;;;;;;;32.45;100.00;100139.67;1681200;83;21054;-90
2022/08/18 10:24:42;;;;;;;18.62;16.82;;;;;;;32.50;100.00;100132.11;1698265;83;21152;-91
2022/08/18 10:27:40;;;;;;;17.62;16.05;;;;;;;32.55;97.26;100133.47;1697377;84;21022;-93
2022/08/18 10:30:38;;;;;;;17.95;16.12;;;;;;;32.60;95.56;100132.64;1664442;85;21067;-95
2022/08/18 10:33:11;;;;;;;16.50;14.90;;;;;;;32.64;96.15;100126.44;1682836;84;21055;-95
2022/08/18 10:35:51;;;;;;;16.82;15.38;;;;;;;32.71;100.00;100118.86;1699083;83;21552;-96
2022/08/18 10:38:37;;;;;;;17.67;16.07;;;;;;;32.78;96.84;100117.77;1696916;83;21151;-96
2022/08/18 10:41:10;;;;;;;18.62;16.42;;;;;;;32.81;94.64;100111.84;1699551;82;21033;-95
2022/08/18 10:43:47;;;;;;;17.48;15.68;;;;;;;32.82;94.80;100112.91;1698515;84;21281;-94
2022/08/18 10:46:20;;;;;;;16.37;14.87;;;;;;;32.80;89.33;100107.53;1701613;83;21057;-96
2022/08/18 10:49:07;;;;;;;17.10;14.80;;;;;;;32.85;90.50;100123.11;1684765;83;21008;-96
2022/08/18 10:52:17;;;;;;;18.05;16.25;;;;;;;32.91;82.94;100113.67;1659718;83;21307;-95
2022/08/18 10:55:24;;;;;;;18.40;16.52;;;;;;;33.01;89.05;100114.98;1680945;84;20999;-95
2022/08/18 10:58:36;;;;;;;17.10;15.40;;;;;;;33.06;82.54;100116.28;1657853;86;21169;-94
2022/08/18 11:01:26;;;;;;;15.25;13.90;;;;;;;33.05;75.09;100112.53;1657827;85;21071;-96
2022/08/18 11:04:12;;;;;;;16.75;15.15;;;;;;;33.01;78.51;100111.73;1667670;85;21095;-95
2022/08/18 11:06:46;;;;;;;16.37;14.78;;;;;;;33.02;78.24;100114.69;1673995;83;21902;-96
2022/08/18 11:09:28;;;;;;;17.37;15.85;;;;;;;33.13;76.88;100107.34;1667004;85;21028;-95
2022/08/18 11:11:59;;;;;;;17.27;15.70;;;;;;;33.23;82.95;100105.11;1675295;85;21053;-93
2022/08/18 11:15:07;;;;;;;16.27;14.65;;;;;;;33.29;82.15;100109.38;1675705;83;21256;-95
2022/08/18 11:18:17;;;;;;;17.17;15.68;;;;;;;33.37;86.31;100110.72;1674417;85;21056;-93
2022/08/18 11:20:44;;;;;;;18.20;16.48;;;;;;;33.43;83.20;100111.50;1656805;85;21161;-96
2022/08/18 11:23:15;;;;;;;16.82;15.15;;;;;;;33.48;81.21;100115.50;1651466;84;21915;-96
2022/08/18 11:25:43;;;;;;;15.43;14.13;;;;;;;33.53;82.64;100120.05;1674307;84;21093;-95
2022/08/18 11:28:22;;;;;;;16.32;14.90;;;;;;;33.60;77.09;100111.09;1640565;84;21056;-96
2022/08/18 11:30:53;;;;;;;15.25;13.83;;;;;;;33.60;74.65;100104.34;1678915;83;21038;-95
2022/08/18 11:33:23;;;;;;;;;;;;;;;33.63;72.03;100106.48;1678349;84;21169;-94
2022/08/18 11:35:57;;;;;;;16.27;14.78;;;;;;;33.68;71.68;100102.38;1662747;85;20201;-95
2022/08/18 11:38:27;;;;;;;15.13;13.53;;;;;;;33.73;69.71;100100.19;1675065;85;21030;-96
2022/08/18 11:41:17;;;;;;;16.62;14.78;;;;;;;33.75;68.28;100095.31;1674508;83;21528;-96
2022/08/18 11:43:47;;;;;;;15.78;14.28;;;;;;;33.79;68.95;100093.12;1673888;85;21434;-96
2022/08/18 11:46:30;;;;;;;15.00;13.60;;;;;;;33.78;68.36;100093.38;1668149;85;21185;-96
2022/08/18 11:48:59;;;;;;;15.05;13.75;;;;;;;33.79;66.43;100085.02;1672079;85;20957;-96
2022/08/18 11:51:32;;;;;;;14.73;13.43;;;;;;;33.82;67.13;100083.64;1679790;84;20957;-96
2022/08/18 11:54:04;;;;;;;14.87;13.43;;;;;;;33.84;66.34;100076.07;1671171;84;21102;-95
2022/08/18 11:56:35;;;;;;;16.67;14.53;;;;;;;33.88;69.32;100078.48;1667761;84;21038;-96
2022/08/18 11:59:27;;;;;;;15.55;14.13;;;;;;;33.86;69.19;100077.95;1656471;84;21631;-96
2022/08/18 12:01:58;;;;;;;15.08;13.78;;;;;;;33.81;68.52;100072.02;1670044;84;21046;-95
2022/08/18 12:04:32;;;;;;;28.60;14.47;;;;;;;33.87;72.25;100070.12;1670753;84;21521;-96
2022/08/18 12:07:14;;;;;;;14.30;13.00;;;;;;;33.97;74.04;100074.63;1666109;83;21087;-96
2022/08/18 12:10:21;;;;;;;14.23;12.82;;;;;;;34.08;69.14;100077.47;1670771;84;21062;-96
2022/08/18 12:12:52;;;;;;;15.50;13.90;;;;;;;34.12;67.85;100076.34;1686862;83;21152;-96
2022/08/18 12:15:30;;;;;;;13.40;12.15;;;;;;;33.91;65.45;100076.57;1669384;84;21058;-93
2022/08/18 12:17:57;;;;;;;15.23;13.65;;;;;;;33.73;65.62;100071.84;1669376;84;21098;-96
2022/08/18 12:20:27;;;;;;;13.15;12.05;;;;;;;33.66;66.23;100072.16;1671377;83;21027;-96
2022/08/18 12:22:56;;;;;;;12.40;11.30;;;;;;;33.59;69.57;100071.69;1675067;84;21530;-93
2022/08/18 12:25:28;;;;;;;12.07;10.98;;;;;;;33.53;71.75;100073.66;1667564;85;21135;-94
2022/08/18 12:27:56;;;;;;;12.18;11.08;;;;;;;33.37;67.84;100077.56;1672182;85;21071;-94
2022/08/18 12:30:23;;;;;;;12.13;11.05;;;;;;;33.11;71.22;100066.36;1690568;84;21045;-94
2022/08/18 12:32:50;;;;;;;11.80;10.60;;;;;;;32.90;67.67;100062.98;1669234;85;21047;-93
2022/08/18 12:35:19;;;;;;;13.78;11.28;;;;;;;32.73;73.53;100068.71;1670105;83;21588;-96
2022/08/18 12:37:46;;;;;;;15.88;10.55;;;;;;;32.55;72.56;100071.50;1681884;85;21133;-96
2022/08/18 12:40:14;;;;;;;15.20;11.30;;;;;;;32.44;75.70;100069.91;1680321;84;21074;-96